aviador You're here:

KGLD Decoded Metar

GOODLAND in KS, USA
Report Time2018-01-18 09:53:00
UTC Time2018-01-18 10:08:22
Flight Rules vfr VFR
Wind260° at 09 kt
W.Decomp.*RWY 23: 8.4 kt HW 3.2 kt RCW
RWY 30: 5.9 kt HW 6.8 kt LCW
RWY 17: 1.4 kt HW 8.9 kt RCW
W.Rank260° ranks 20
Current wind is above 260° avg. (7.7)
Visibility9999 m
Phenomena:N/A
Clouds:N/A
Expected CloudBase > 2,400 ft AGL from Temp-Dew spread
CeilingNone
Temp-6°C (ISA -14)
Dew Point-12°C (63% RH)
AAT-12.4°C
QNH1021 hPa
Density Alt1,739 ft
Elevation3,652 ft
Report Wrong Elevation
Raw Report
KGLD 180953Z AUTO 26009KT 10SM CLR M06/M12 A3014 RMK AO2 SLP218
T10561122=

Extra information for KGLD:More info

Metar Taf Metar & Taf Last 4 Metars F.Rules Stats Wind Profile Meteogram Temp Stats Airport Information Weather charts Add Link Nearby VenuesMetar ALERT Operation Metar Decoded Social comments

AIRNAV info for KGLD